Time;durP1;ratioP1;P1;durP2;ratioP2;P2;SDS_P1;SDS_P2;PMS_P1;PMS_P2;Temp;Humidity;BMP_temperature;BMP_pressure;BME280_temperature;BME280_humidity;BME280_pressure;Samples;Min_cycle;Max_cycle;Signal;HPM_P1;HPM_P2
2021/11/16 00:00:11;;;;;;;13.95;9.75;;;;;;;;;;5073643;28;20243;-67
2021/11/16 00:02:43;;;;;;;15.20;11.15;;;;;;;;;;5073869;28;20190;-67
2021/11/16 00:05:11;;;;;;;18.77;10.40;;;;;;;;;;5074510;28;20190;-67
2021/11/16 00:07:38;;;;;;;16.92;10.02;;;;;;;;;;5074407;28;20247;-67
2021/11/16 00:10:08;;;;;;;19.58;9.80;;;;;;;;;;5074311;28;20304;-67
2021/11/16 00:12:36;;;;;;;18.23;11.60;;;;;;;;;;5073512;28;20264;-67
2021/11/16 00:15:04;;;;;;;18.60;10.68;;;;;;;;;;5074440;28;20233;-67
2021/11/16 00:17:31;;;;;;;15.45;9.07;;;;;;;;;;5074703;28;20231;-67
2021/11/16 00:20:04;;;;;;;15.18;9.85;;;;;;;;;;5074252;28;20186;-67
2021/11/16 00:22:34;;;;;;;14.77;10.13;;;;;;;;;;5074123;28;20202;-67
2021/11/16 00:25:18;;;;;;;15.02;10.35;;;;;;;;;;5073521;28;20277;-67
2021/11/16 00:27:47;;;;;;;15.73;10.10;;;;;;;;;;5074231;28;20186;-67
2021/11/16 00:30:15;;;;;;;15.38;10.55;;;;;;;;;;5073958;28;20337;-67
2021/11/16 00:32:47;;;;;;;13.15;9.25;;;;;;;;;;5074463;28;20542;-67
2021/11/16 00:35:15;;;;;;;19.27;11.27;;;;;;;;;;5073969;28;20237;-67
2021/11/16 00:37:46;;;;;;;14.93;10.00;;;;;;;;;;5074364;28;20222;-67
2021/11/16 00:40:18;;;;;;;15.05;9.00;;;;;;;;;;5073371;28;20198;-67
2021/11/16 00:42:47;;;;;;;14.77;10.52;;;;;;;;;;5074394;28;20190;-67
2021/11/16 00:45:15;;;;;;;16.35;10.63;;;;;;;;;;5073304;28;20259;-68
2021/11/16 00:47:43;;;;;;;13.68;9.80;;;;;;;;;;5074187;28;20275;-67
2021/11/16 00:50:11;;;;;;;13.15;9.23;;;;;;;;;;5073266;28;20648;-67
2021/11/16 00:52:40;;;;;;;11.95;8.63;;;;;;;;;;5074094;28;20194;-67
2021/11/16 00:55:08;;;;;;;14.25;9.55;;;;;;;;;;5072879;28;20256;-67
2021/11/16 00:57:35;;;;;;;15.15;9.20;;;;;;;;;;5073828;28;20251;-67
2021/11/16 01:00:04;;;;;;;13.85;9.20;;;;;;;;;;5073713;28;20194;-67
2021/11/16 01:02:31;;;;;;;12.70;9.90;;;;;;;;;;5073053;28;20277;-67
2021/11/16 01:04:59;;;;;;;12.48;9.20;;;;;;;;;;5073458;28;20637;-67
2021/11/16 01:07:26;;;;;;;15.85;9.95;;;;;;;;;;5073946;28;20217;-67
2021/11/16 01:09:53;;;;;;;15.25;9.82;;;;;;;;;;5073047;28;20287;-67
2021/11/16 01:12:21;;;;;;;13.63;9.45;;;;;;;;;;5073477;28;20287;-67
2021/11/16 01:14:48;;;;;;;15.57;10.25;;;;;;;;;;5071814;28;20186;-67
2021/11/16 01:17:17;;;;;;;14.85;9.48;;;;;;;;;;5073051;28;20194;-67
2021/11/16 01:19:46;;;;;;;13.52;8.52;;;;;;;;;;5073041;28;20578;-67
2021/11/16 01:22:13;;;;;;;14.05;8.05;;;;;;;;;;5073152;28;20216;-67
2021/11/16 01:24:46;;;;;;;14.75;11.68;;;;;;;;;;5073611;28;20281;-67
2021/11/16 01:27:18;;;;;;;13.80;9.50;;;;;;;;;;5072961;28;20216;-67
2021/11/16 01:29:46;;;;;;;11.85;7.78;;;;;;;;;;5073279;28;20226;-67
2021/11/16 01:32:26;;;;;;;10.65;8.15;;;;;;;;;;5073025;28;20275;-67
2021/11/16 01:34:55;;;;;;;12.20;8.20;;;;;;;;;;5073467;28;20198;-68
2021/11/16 01:37:27;;;;;;;10.73;7.53;;;;;;;;;;5072387;28;20587;-67
2021/11/16 01:39:55;;;;;;;9.90;7.32;;;;;;;;;;5073118;28;20194;-68
2021/11/16 01:42:23;;;;;;;10.82;6.75;;;;;;;;;;5072734;28;20217;-68
2021/11/16 01:44:53;;;;;;;9.82;6.82;;;;;;;;;;5072861;28;20244;-68
2021/11/16 01:47:21;;;;;;;11.55;7.50;;;;;;;;;;5072100;28;20255;-70
2021/11/16 01:49:50;;;;;;;9.00;6.85;;;;;;;;;;5052697;28;20241;-67
2021/11/16 01:52:18;;;;;;;8.15;6.15;;;;;;;;;;5059165;28;20225;-67
2021/11/16 01:54:46;;;;;;;9.20;5.90;;;;;;;;;;5073064;28;20243;-67
2021/11/16 01:57:13;;;;;;;7.10;5.50;;;;;;;;;;5072127;28;20533;-67
2021/11/16 01:59:40;;;;;;;6.80;5.35;;;;;;;;;;5072094;28;20213;-67
2021/11/16 02:02:08;;;;;;;6.30;4.93;;;;;;;;;;5072829;28;20229;-67
2021/11/16 02:04:35;;;;;;;7.45;5.80;;;;;;;;;;5072430;28;20183;-67
2021/11/16 02:07:03;;;;;;;7.32;5.30;;;;;;;;;;5072139;28;20661;-67
2021/11/16 02:09:35;;;;;;;6.57;4.72;;;;;;;;;;5072004;28;20210;-67
2021/11/16 02:12:03;;;;;;;6.20;4.97;;;;;;;;;;5072298;28;20226;-67
2021/11/16 02:14:31;;;;;;;6.97;4.88;;;;;;;;;;5072292;28;20233;-67
2021/11/16 02:16:58;;;;;;;8.10;5.35;;;;;;;;;;5072153;28;20192;-67
2021/11/16 02:19:26;;;;;;;8.27;5.40;;;;;;;;;;5070718;28;20209;-68
2021/11/16 02:21:54;;;;;;;6.93;5.03;;;;;;;;;;5071023;28;20178;-67
2021/11/16 02:24:22;;;;;;;7.95;5.85;;;;;;;;;;5071121;28;20218;-68
2021/11/16 02:26:53;;;;;;;7.65;6.00;;;;;;;;;;5072539;28;20190;-70
2021/11/16 02:29:20;;;;;;;7.25;5.00;;;;;;;;;;5071539;28;20209;-67
2021/11/16 02:31:52;;;;;;;7.95;5.97;;;;;;;;;;5072190;28;20248;-67
2021/11/16 02:34:20;;;;;;;6.50;5.20;;;;;;;;;;5072120;28;20187;-68
2021/11/16 02:36:47;;;;;;;7.07;5.72;;;;;;;;;;5072347;28;20202;-67
2021/11/16 02:39:16;;;;;;;7.75;5.47;;;;;;;;;;5071412;28;20218;-67
2021/11/16 02:41:45;;;;;;;6.32;4.93;;;;;;;;;;5072133;28;20220;-67
2021/11/16 02:44:17;;;;;;;6.75;5.05;;;;;;;;;;5069193;28;20645;-67
2021/11/16 02:46:44;;;;;;;6.63;4.85;;;;;;;;;;5072126;28;20229;-67
2021/11/16 02:49:11;;;;;;;9.00;6.50;;;;;;;;;;5071886;28;20217;-67
2021/11/16 02:51:39;;;;;;;7.90;5.35;;;;;;;;;;5072032;28;20224;-67
2021/11/16 02:54:11;;;;;;;8.50;5.60;;;;;;;;;;5071053;28;20275;-67
2021/11/16 02:56:40;;;;;;;8.00;6.40;;;;;;;;;;5072041;28;20578;-67
2021/11/16 02:59:07;;;;;;;9.30;6.20;;;;;;;;;;5071907;28;20202;-67
2021/11/16 03:01:40;;;;;;;8.95;4.90;;;;;;;;;;5071309;28;20623;-67
2021/11/16 03:04:07;;;;;;;7.22;5.57;;;;;;;;;;5071883;28;20222;-67
2021/11/16 03:06:35;;;;;;;6.20;5.60;;;;;;;;;;5070775;28;20235;-67
2021/11/16 03:09:02;;;;;;;7.97;6.20;;;;;;;;;;5071634;28;20343;-67
2021/11/16 03:11:32;;;;;;;7.90;5.15;;;;;;;;;;5069629;28;20253;-67
2021/11/16 03:14:00;;;;;;;7.10;6.15;;;;;;;;;;5071640;28;20233;-68
2021/11/16 03:16:27;;;;;;;7.18;4.70;;;;;;;;;;5071355;28;20299;-67
2021/11/16 03:18:56;;;;;;;5.55;4.85;;;;;;;;;;5071641;28;20281;-67
2021/11/16 03:21:24;;;;;;;5.88;4.43;;;;;;;;;;5071046;28;20645;-66
2021/11/16 03:23:53;;;;;;;7.28;5.30;;;;;;;;;;5071942;28;20239;-67
2021/11/16 03:26:23;;;;;;;7.60;5.05;;;;;;;;;;5075303;28;20546;-67
2021/11/16 03:28:51;;;;;;;7.40;5.70;;;;;;;;;;5075336;28;20281;-67
2021/11/16 03:31:22;;;;;;;5.90;4.28;;;;;;;;;;5075349;28;20194;-66
2021/11/16 03:33:49;;;;;;;6.57;4.90;;;;;;;;;;5075327;28;20190;-67
2021/11/16 03:36:17;;;;;;;6.50;4.70;;;;;;;;;;5074776;28;20247;-66
2021/11/16 03:38:44;;;;;;;5.78;4.63;;;;;;;;;;5075035;28;20611;-67
2021/11/16 03:41:12;;;;;;;8.02;4.82;;;;;;;;;;5074740;28;20191;-66
2021/11/16 03:43:40;;;;;;;7.13;5.03;;;;;;;;;;5075070;28;20209;-67
2021/11/16 03:46:07;;;;;;;7.00;5.18;;;;;;;;;;5073657;28;20214;-67
2021/11/16 03:48:36;;;;;;;7.82;5.95;;;;;;;;;;5074912;28;20209;-66
2021/11/16 03:51:03;;;;;;;7.20;5.05;;;;;;;;;;5074308;28;20214;-67
2021/11/16 03:53:31;;;;;;;7.15;5.20;;;;;;;;;;5074902;28;20285;-67
2021/11/16 03:55:59;;;;;;;6.57;4.35;;;;;;;;;;5073745;28;20178;-67
2021/11/16 03:58:26;;;;;;;6.13;4.97;;;;;;;;;;5075149;28;20190;-67
2021/11/16 04:00:56;;;;;;;8.38;5.68;;;;;;;;;;5074259;28;20222;-67
2021/11/16 04:03:25;;;;;;;8.00;5.43;;;;;;;;;;5075123;28;20281;-66
2021/11/16 04:05:53;;;;;;;6.50;5.13;;;;;;;;;;5074723;28;20222;-67
2021/11/16 04:08:21;;;;;;;7.18;5.20;;;;;;;;;;5075046;28;20233;-67
2021/11/16 04:10:50;;;;;;;5.63;4.68;;;;;;;;;;5073929;28;20784;-68
2021/11/16 04:13:17;;;;;;;5.68;4.25;;;;;;;;;;5074704;28;20304;-66
2021/11/16 04:15:47;;;;;;;5.60;4.03;;;;;;;;;;5074525;28;20288;-67
2021/11/16 04:18:14;;;;;;;6.90;5.10;;;;;;;;;;5054618;28;20700;-66
2021/11/16 04:20:44;;;;;;;7.88;5.38;;;;;;;;;;5054683;28;20238;-67
2021/11/16 04:23:14;;;;;;;5.60;4.45;;;;;;;;;;5073992;28;20244;-66
2021/11/16 04:25:42;;;;;;;7.57;4.60;;;;;;;;;;5074657;28;20281;-66
2021/11/16 04:28:10;;;;;;;7.40;4.85;;;;;;;;;;5072748;28;20201;-66
2021/11/16 04:30:39;;;;;;;9.98;4.32;;;;;;;;;;5074276;28;20230;-66
2021/11/16 04:33:07;;;;;;;6.10;4.60;;;;;;;;;;5074102;28;20182;-66
2021/11/16 04:35:35;;;;;;;7.18;5.00;;;;;;;;;;5072998;28;20311;-67
2021/11/16 04:38:04;;;;;;;6.63;4.60;;;;;;;;;;5073739;28;20192;-66
2021/11/16 04:40:36;;;;;;;6.40;5.30;;;;;;;;;;5073712;28;20591;-66
2021/11/16 04:43:06;;;;;;;5.80;4.50;;;;;;;;;;5074302;28;20225;-67
2021/11/16 04:45:34;;;;;;;6.35;5.05;;;;;;;;;;5073655;28;20182;-68
2021/11/16 04:48:06;;;;;;;7.03;5.22;;;;;;;;;;5073921;28;20638;-67
2021/11/16 04:50:45;;;;;;;5.40;4.15;;;;;;;;;;5073305;28;20220;-67
2021/11/16 04:53:38;;;;;;;7.53;5.10;;;;;;;;;;5074163;28;20186;-67
2021/11/16 05:04:22;;;;;;;7.15;4.80;;;;;;;;;;5055119;28;20268;-68
2021/11/16 05:06:53;;;;;;;8.43;5.53;;;;;;;;;;5073681;28;20190;-67
2021/11/16 05:09:21;;;;;;;8.25;4.75;;;;;;;;;;5073500;28;20602;-68
2021/11/16 05:11:51;;;;;;;6.50;5.13;;;;;;;;;;5073292;28;20704;-67
2021/11/16 05:14:21;;;;;;;7.40;4.30;;;;;;;;;;5073174;28;20221;-67
2021/11/16 05:16:49;;;;;;;4.88;4.35;;;;;;;;;;5073499;28;20195;-67
2021/11/16 05:19:16;;;;;;;8.90;4.05;;;;;;;;;;5072903;28;20197;-66
2021/11/16 05:21:44;;;;;;;6.30;4.40;;;;;;;;;;5073030;28;20190;-66
2021/11/16 05:24:16;;;;;;;5.70;5.00;;;;;;;;;;5073215;28;20195;-66
2021/11/16 05:26:45;;;;;;;5.68;4.63;;;;;;;;;;5072958;28;20395;-66
2021/11/16 05:29:14;;;;;;;7.47;4.78;;;;;;;;;;5072776;28;20186;-66
2021/11/16 05:31:43;;;;;;;6.88;5.50;;;;;;;;;;5072674;28;20221;-66
2021/11/16 05:34:11;;;;;;;8.25;5.00;;;;;;;;;;5072897;28;20251;-67
2021/11/16 05:36:38;;;;;;;6.80;4.82;;;;;;;;;;5072535;28;20182;-66
2021/11/16 05:39:06;;;;;;;6.40;5.30;;;;;;;;;;5073141;28;20194;-67
2021/11/16 05:41:36;;;;;;;8.77;6.55;;;;;;;;;;5072644;28;20550;-66
2021/11/16 05:44:04;;;;;;;7.65;4.85;;;;;;;;;;5073151;28;20217;-66
2021/11/16 05:46:33;;;;;;;9.43;5.70;;;;;;;;;;5072498;28;20240;-67
2021/11/16 05:49:01;;;;;;;7.70;5.78;;;;;;;;;;5072436;28;20218;-67
2021/11/16 05:51:29;;;;;;;8.27;6.60;;;;;;;;;;5072346;28;20218;-66
2021/11/16 05:53:59;;;;;;;8.55;6.30;;;;;;;;;;5072781;28;20194;-66
2021/11/16 05:56:28;;;;;;;6.70;5.35;;;;;;;;;;5072588;28;20573;-66
2021/11/16 05:58:57;;;;;;;7.63;5.18;;;;;;;;;;5072839;28;20202;-68
2021/11/16 06:01:27;;;;;;;9.38;6.05;;;;;;;;;;5072122;28;20245;-67
2021/11/16 06:03:56;;;;;;;8.45;5.95;;;;;;;;;;5072522;28;20196;-67
2021/11/16 06:06:29;;;;;;;7.88;5.95;;;;;;;;;;5072312;28;20509;-67
2021/11/16 06:08:58;;;;;;;9.80;5.85;;;;;;;;;;5070346;28;20190;-68
2021/11/16 06:11:27;;;;;;;6.18;5.28;;;;;;;;;;5070599;28;20296;-66
2021/11/16 06:13:56;;;;;;;6.53;4.93;;;;;;;;;;5071167;28;20198;-66
2021/11/16 06:16:25;;;;;;;8.80;6.70;;;;;;;;;;5066435;28;20216;-67
2021/11/16 06:18:58;;;;;;;7.85;6.15;;;;;;;;;;5070998;28;20194;-67
2021/11/16 06:21:29;;;;;;;7.88;5.22;;;;;;;;;;5070067;28;20236;-67
2021/11/16 06:23:57;;;;;;;7.68;6.40;;;;;;;;;;5067145;28;20194;-66
2021/11/16 06:26:25;;;;;;;8.82;5.30;;;;;;;;;;5070731;28;20247;-67
2021/11/16 06:28:52;;;;;;;9.23;6.22;;;;;;;;;;5070888;28;20190;-66
2021/11/16 06:31:23;;;;;;;8.50;5.78;;;;;;;;;;5070048;28;20600;-67
2021/11/16 06:33:51;;;;;;;10.63;5.85;;;;;;;;;;5070994;28;20225;-66
2021/11/16 06:36:19;;;;;;;7.05;5.40;;;;;;;;;;5070371;28;20186;-68
2021/11/16 06:38:48;;;;;;;8.23;5.00;;;;;;;;;;5070539;28;20244;-66
2021/11/16 06:41:16;;;;;;;6.55;4.50;;;;;;;;;;5070519;28;20232;-67
2021/11/16 06:43:43;;;;;;;7.07;5.25;;;;;;;;;;5070746;28;20672;-66
2021/11/16 06:46:11;;;;;;;6.57;5.05;;;;;;;;;;5069910;28;20252;-67
2021/11/16 06:48:38;;;;;;;7.38;4.50;;;;;;;;;;5070163;28;20191;-66
2021/11/16 06:51:05;;;;;;;6.95;4.60;;;;;;;;;;5070775;28;20240;-65
2021/11/16 06:53:34;;;;;;;6.90;4.60;;;;;;;;;;5069798;28;20194;-66
2021/11/16 06:56:05;;;;;;;7.97;5.10;;;;;;;;;;5069312;28;20190;-67
2021/11/16 06:58:34;;;;;;;6.90;5.18;;;;;;;;;;5065269;28;20273;-67
2021/11/16 07:01:02;;;;;;;5.72;3.97;;;;;;;;;;5071602;28;20186;-66
2021/11/16 07:03:30;;;;;;;6.80;5.20;;;;;;;;;;5073321;28;20224;-66
2021/11/16 07:05:58;;;;;;;7.60;5.15;;;;;;;;;;5071257;28;20186;-66
2021/11/16 07:08:30;;;;;;;7.05;4.47;;;;;;;;;;5073016;28;20202;-66
2021/11/16 07:11:04;;;;;;;7.40;5.05;;;;;;;;;;5073516;28;20644;-67
2021/11/16 07:13:31;;;;;;;6.10;4.38;;;;;;;;;;5071473;28;20666;-66
2021/11/16 07:15:58;;;;;;;7.53;5.93;;;;;;;;;;5073395;28;20276;-66
2021/11/16 07:18:26;;;;;;;7.63;5.18;;;;;;;;;;5072590;28;20202;-66
2021/11/16 07:21:00;;;;;;;8.02;5.82;;;;;;;;;;5072516;28;20190;-66
2021/11/16 07:23:30;;;;;;;6.90;4.90;;;;;;;;;;5070275;28;20617;-66
2021/11/16 07:25:57;;;;;;;6.72;5.38;;;;;;;;;;5072740;28;20633;-66
2021/11/16 07:28:26;;;;;;;7.35;5.25;;;;;;;;;;5069790;28;20190;-66
2021/11/16 07:30:53;;;;;;;7.82;5.20;;;;;;;;;;5072179;28;20325;-66
2021/11/16 07:33:21;;;;;;;7.75;5.15;;;;;;;;;;5070532;28;20190;-67
2021/11/16 07:35:48;;;;;;;5.80;4.68;;;;;;;;;;5071486;28;20205;-67
2021/11/16 07:38:18;;;;;;;6.47;5.10;;;;;;;;;;5070259;28;20368;-65
2021/11/16 07:40:47;;;;;;;7.55;6.10;;;;;;;;;;5072289;28;20206;-66
2021/11/16 07:43:15;;;;;;;7.32;4.90;;;;;;;;;;5070873;28;20255;-67
2021/11/16 07:45:48;;;;;;;8.82;4.70;;;;;;;;;;5072273;28;20209;-66
2021/11/16 07:48:18;;;;;;;8.18;5.60;;;;;;;;;;5072526;28;20541;-66
2021/11/16 07:50:50;;;;;;;8.45;5.68;;;;;;;;;;5070807;28;20214;-67
2021/11/16 07:53:24;;;;;;;10.05;6.68;;;;;;;;;;5072341;28;20636;-66
2021/11/16 07:55:59;;;;;;;11.70;6.88;;;;;;;;;;5070427;28;20193;-67
2021/11/16 07:58:31;;;;;;;9.10;6.30;;;;;;;;;;5072175;28;20200;-66
2021/11/16 08:01:02;;;;;;;9.40;6.82;;;;;;;;;;5071258;28;20579;-67
2021/11/16 08:03:36;;;;;;;7.63;4.97;;;;;;;;;;5071917;28;20187;-66
2021/11/16 08:06:11;;;;;;;11.10;7.40;;;;;;;;;;5072877;28;20194;-66
2021/11/16 08:11:21;;;;;;;8.13;5.65;;;;;;;;;;5061811;28;21273;-66
2021/11/16 08:13:54;;;;;;;8.63;5.85;;;;;;;;;;5072290;28;20668;-67
2021/11/16 08:16:24;;;;;;;7.78;5.30;;;;;;;;;;5070057;28;20193;-66
2021/11/16 08:18:53;;;;;;;10.48;6.07;;;;;;;;;;5073142;28;20182;-66
2021/11/16 08:21:22;;;;;;;6.85;5.63;;;;;;;;;;5072675;28;20535;-66
2021/11/16 08:23:54;;;;;;;11.43;7.63;;;;;;;;;;5070853;28;20186;-66
2021/11/16 08:26:22;;;;;;;9.93;5.90;;;;;;;;;;5073005;28;20549;-66
2021/11/16 08:28:51;;;;;;;7.88;6.03;;;;;;;;;;5072290;28;20233;-66
2021/11/16 08:31:20;;;;;;;5.75;4.38;;;;;;;;;;5072655;28;20230;-66
2021/11/16 08:33:51;;;;;;;7.65;5.40;;;;;;;;;;5071483;28;20190;-69
2021/11/16 08:36:18;;;;;;;7.13;5.22;;;;;;;;;;5071418;28;20186;-66
2021/11/16 08:38:46;;;;;;;8.18;5.70;;;;;;;;;;5070911;28;20321;-66
2021/11/16 08:41:29;;;;;;;8.13;5.78;;;;;;;;;;5073234;28;20193;-66
2021/11/16 08:44:07;;;;;;;7.05;4.90;;;;;;;;;;5072466;28;20190;-67
2021/11/16 08:46:36;;;;;;;7.13;5.22;;;;;;;;;;5073221;28;20190;-66
2021/11/16 08:49:05;;;;;;;7.60;5.25;;;;;;;;;;5072167;28;20655;-66
2021/11/16 08:51:39;;;;;;;7.90;5.05;;;;;;;;;;5073027;28;20211;-66
2021/11/16 08:54:07;;;;;;;7.57;5.40;;;;;;;;;;5072478;28;20190;-66
2021/11/16 08:56:37;;;;;;;8.07;5.03;;;;;;;;;;5072536;28;20190;-65
2021/11/16 08:59:10;;;;;;;6.22;4.40;;;;;;;;;;5071806;28;20191;-66
2021/11/16 09:01:38;;;;;;;6.72;5.10;;;;;;;;;;5072165;28;20232;-66
2021/11/16 09:04:08;;;;;;;8.50;6.40;;;;;;;;;;5072523;28;20182;-66
2021/11/16 09:06:38;;;;;;;7.15;4.93;;;;;;;;;;5072616;28;20600;-66
2021/11/16 09:09:10;;;;;;;7.95;4.95;;;;;;;;;;5072385;28;20229;-66
2021/11/16 09:11:38;;;;;;;7.57;5.40;;;;;;;;;;5071353;28;20279;-66
2021/11/16 09:14:11;;;;;;;6.45;5.30;;;;;;;;;;5070485;28;20228;-66
2021/11/16 09:16:40;;;;;;;8.30;5.60;;;;;;;;;;5072351;28;20256;-66
2021/11/16 09:19:10;;;;;;;8.20;6.05;;;;;;;;;;5065794;28;20281;-68
2021/11/16 09:21:39;;;;;;;9.00;6.00;;;;;;;;;;5069994;28;20558;-66
2021/11/16 09:24:08;;;;;;;6.30;5.15;;;;;;;;;;5071813;28;20560;-66
2021/11/16 09:26:40;;;;;;;7.82;5.32;;;;;;;;;;5071449;28;20183;-66
2021/11/16 09:29:09;;;;;;;6.80;5.18;;;;;;;;;;5071886;28;20189;-67
2021/11/16 09:31:38;;;;;;;6.90;5.75;;;;;;;;;;5071346;28;20220;-66
2021/11/16 09:34:07;;;;;;;8.55;5.35;;;;;;;;;;5071573;28;20194;-66
2021/11/16 09:36:40;;;;;;;6.68;5.10;;;;;;;;;;5071037;28;20198;-66
2021/11/16 09:39:09;;;;;;;7.40;5.72;;;;;;;;;;5071969;28;20197;-66
2021/11/16 09:41:40;;;;;;;9.98;6.05;;;;;;;;;;5070610;28;20190;-66
2021/11/16 09:44:10;;;;;;;8.45;5.45;;;;;;;;;;5071658;28;20264;-66
2021/11/16 09:46:45;;;;;;;8.70;6.13;;;;;;;;;;5070741;28;20190;-66
2021/11/16 09:49:14;;;;;;;7.93;5.85;;;;;;;;;;5067894;28;20278;-66
2021/11/16 09:51:43;;;;;;;10.25;5.45;;;;;;;;;;5069821;28;20283;-66
2021/11/16 09:54:11;;;;;;;7.53;5.78;;;;;;;;;;5071266;28;20286;-66
2021/11/16 09:56:43;;;;;;;8.88;5.78;;;;;;;;;;5070174;28;20549;-66
2021/11/16 09:59:12;;;;;;;9.48;6.43;;;;;;;;;;5069998;28;20218;-66
2021/11/16 10:01:41;;;;;;;8.65;6.22;;;;;;;;;;5069336;28;20557;-66
2021/11/16 10:04:10;;;;;;;7.88;5.88;;;;;;;;;;5066632;28;20197;-66
2021/11/16 10:06:37;;;;;;;9.20;6.30;;;;;;;;;;5069954;28;20190;-66
2021/11/16 10:09:07;;;;;;;9.23;6.00;;;;;;;;;;5071367;28;20212;-66
2021/11/16 10:11:41;;;;;;;9.15;5.75;;;;;;;;;;5069089;28;20226;-67
2021/11/16 10:14:13;;;;;;;8.02;5.35;;;;;;;;;;5071084;28;20212;-66
2021/11/16 10:16:42;;;;;;;10.30;6.13;;;;;;;;;;5070589;28;20600;-67
2021/11/16 10:19:09;;;;;;;8.75;5.93;;;;;;;;;;5071138;28;20187;-68
2021/11/16 10:21:37;;;;;;;6.80;5.72;;;;;;;;;;5070675;28;20665;-66
2021/11/16 10:24:20;;;;;;;10.25;6.40;;;;;;;;;;5071053;28;20240;-66
2021/11/16 10:26:50;;;;;;;6.97;5.45;;;;;;;;;;5069649;28;20194;-66
2021/11/16 10:29:18;;;;;;;8.23;5.30;;;;;;;;;;5071180;28;20881;-66
2021/11/16 10:31:46;;;;;;;7.22;4.80;;;;;;;;;;5068740;28;20229;-67
2021/11/16 10:34:13;;;;;;;7.57;5.65;;;;;;;;;;5069232;28;20196;-66
2021/11/16 10:36:40;;;;;;;8.23;5.13;;;;;;;;;;5070970;28;20190;-66
2021/11/16 10:39:07;;;;;;;8.18;5.57;;;;;;;;;;5070462;28;20186;-66
2021/11/16 10:41:37;;;;;;;8.30;6.15;;;;;;;;;;5070648;28;20202;-68
2021/11/16 10:44:08;;;;;;;7.68;5.57;;;;;;;;;;5070553;28;20230;-65
2021/11/16 10:46:36;;;;;;;7.22;5.22;;;;;;;;;;5070379;28;20179;-67
2021/11/16 10:49:13;;;;;;;7.72;6.00;;;;;;;;;;5069193;28;20230;-68
2021/11/16 10:51:42;;;;;;;7.70;5.68;;;;;;;;;;5068083;28;20233;-68
2021/11/16 10:54:11;;;;;;;9.25;5.78;;;;;;;;;;5070442;28;20271;-67
2021/11/16 10:56:40;;;;;;;7.95;6.07;;;;;;;;;;5070213;28;20198;-68
2021/11/16 10:59:10;;;;;;;8.15;6.05;;;;;;;;;;5068270;28;20233;-67
2021/11/16 11:01:44;;;;;;;7.72;5.63;;;;;;;;;;5070458;28;20229;-67
2021/11/16 11:04:14;;;;;;;9.52;6.10;;;;;;;;;;5065928;28;20186;-67
2021/11/16 11:06:43;;;;;;;8.30;5.22;;;;;;;;;;5070593;28;20273;-67
2021/11/16 11:09:11;;;;;;;8.10;5.38;;;;;;;;;;5070320;28;20195;-67
2021/11/16 11:11:41;;;;;;;7.07;4.90;;;;;;;;;;5070125;28;20253;-67
2021/11/16 11:14:09;;;;;;;8.07;5.68;;;;;;;;;;5069310;28;20190;-68
2021/11/16 11:16:38;;;;;;;7.43;5.97;;;;;;;;;;5069389;28;20198;-67
2021/11/16 11:19:06;;;;;;;7.63;5.90;;;;;;;;;;5068446;28;20193;-71
2021/11/16 11:21:39;;;;;;;8.05;5.45;;;;;;;;;;5065104;28;20260;-67
2021/11/16 11:24:15;;;;;;;7.97;5.93;;;;;;;;;;5070323;28;20278;-67
2021/11/16 11:26:49;;;;;;;7.07;5.05;;;;;;;;;;5069002;28;20723;-67
2021/11/16 11:29:35;;;;;;;7.60;5.00;;;;;;;;;;5070299;28;20293;-68
2021/11/16 11:32:20;;;;;;;9.25;5.63;;;;;;;;;;5068272;28;20222;-67
2021/11/16 11:34:49;;;;;;;6.80;5.28;;;;;;;;;;5069079;28;20560;-67
2021/11/16 11:37:18;;;;;;;9.98;6.22;;;;;;;;;;5069069;28;20198;-67
2021/11/16 11:39:46;;;;;;;9.60;5.95;;;;;;;;;;5068537;28;20201;-67
2021/11/16 11:42:15;;;;;;;9.25;6.20;;;;;;;;;;5069755;28;20594;-67
2021/11/16 11:44:55;;;;;;;9.65;6.32;;;;;;;;;;5070003;28;20194;-67
2021/11/16 11:47:28;;;;;;;7.20;5.47;;;;;;;;;;5073571;28;20197;-68
2021/11/16 11:49:57;;;;;;;7.85;5.93;;;;;;;;;;5073901;28;20490;-68
2021/11/16 11:52:24;;;;;;;9.05;6.80;;;;;;;;;;5073438;28;20296;-67
2021/11/16 11:54:51;;;;;;;8.48;6.28;;;;;;;;;;5073228;28;20237;-69
2021/11/16 11:57:20;;;;;;;7.75;5.60;;;;;;;;;;5068867;28;20178;-67
2021/11/16 11:59:47;;;;;;;10.50;6.88;;;;;;;;;;5073899;28;20295;-67
2021/11/16 12:02:15;;;;;;;9.70;6.30;;;;;;;;;;5073150;28;20243;-67
2021/11/16 12:04:42;;;;;;;7.78;5.13;;;;;;;;;;5073272;28;20186;-67
2021/11/16 12:07:10;;;;;;;8.50;5.18;;;;;;;;;;5073125;28;20273;-67
2021/11/16 12:09:38;;;;;;;8.82;6.05;;;;;;;;;;5074072;28;20255;-67
2021/11/16 12:12:07;;;;;;;9.73;6.45;;;;;;;;;;5072928;28;20268;-68
2021/11/16 12:14:41;;;;;;;8.48;6.28;;;;;;;;;;5068820;28;20186;-68
2021/11/16 12:17:13;;;;;;;6.72;5.07;;;;;;;;;;5073629;28;20194;-67
2021/11/16 12:19:41;;;;;;;7.20;4.85;;;;;;;;;;5072832;28;20269;-68
2021/11/16 12:22:24;;;;;;;11.23;6.13;;;;;;;;;;5073223;28;20221;-67
2021/11/16 12:24:55;;;;;;;8.75;5.57;;;;;;;;;;5073383;28;20657;-67
2021/11/16 12:27:24;;;;;;;7.25;5.05;;;;;;;;;;5073532;28;20195;-68
2021/11/16 12:29:54;;;;;;;9.55;6.25;;;;;;;;;;5072194;28;20269;-67
2021/11/16 12:32:23;;;;;;;9.63;5.78;;;;;;;;;;5073310;28;20679;-67
2021/11/16 12:34:52;;;;;;;9.13;6.78;;;;;;;;;;5069131;28;20236;-67
2021/11/16 12:37:33;;;;;;;8.25;5.97;;;;;;;;;;5073280;28;20202;-67
2021/11/16 12:40:01;;;;;;;7.88;5.40;;;;;;;;;;5072858;28;20192;-67
2021/11/16 12:42:29;;;;;;;9.85;6.40;;;;;;;;;;5071424;28;20232;-67
2021/11/16 12:44:59;;;;;;;8.18;5.93;;;;;;;;;;5072048;28;20186;-67
2021/11/16 12:47:27;;;;;;;8.30;6.25;;;;;;;;;;5071730;28;20190;-67
2021/11/16 12:50:07;;;;;;;7.47;5.63;;;;;;;;;;5069717;28;20522;-67
2021/11/16 12:52:43;;;;;;;8.98;6.20;;;;;;;;;;5071850;28;20209;-68
2021/11/16 12:55:19;;;;;;;7.97;6.32;;;;;;;;;;5072228;28;20248;-67
2021/11/16 12:57:48;;;;;;;9.55;6.45;;;;;;;;;;5071592;28;20194;-68
2021/11/16 13:00:18;;;;;;;8.00;5.50;;;;;;;;;;5072026;28;20222;-67
2021/11/16 13:02:49;;;;;;;7.57;5.30;;;;;;;;;;5072428;28;20201;-67
2021/11/16 13:05:28;;;;;;;8.75;6.22;;;;;;;;;;5071312;28;20645;-67
2021/11/16 13:07:58;;;;;;;8.00;6.75;;;;;;;;;;5072285;28;20239;-67
2021/11/16 13:10:29;;;;;;;9.95;6.10;;;;;;;;;;5071432;28;20196;-68
2021/11/16 13:12:58;;;;;;;11.15;5.93;;;;;;;;;;5068359;28;20229;-67
2021/11/16 13:15:42;;;;;;;9.57;6.22;;;;;;;;;;5071547;28;20182;-67
2021/11/16 13:18:12;;;;;;;11.57;6.47;;;;;;;;;;5071940;28;20244;-67
2021/11/16 13:20:45;;;;;;;9.88;6.63;;;;;;;;;;5071097;28;20190;-67
2021/11/16 13:23:18;;;;;;;9.68;6.45;;;;;;;;;;5071708;28;20660;-67
2021/11/16 13:25:47;;;;;;;9.07;6.38;;;;;;;;;;5071968;28;20625;-67
2021/11/16 13:28:54;;;;;;;12.10;6.78;;;;;;;;;;5070856;28;20771;-68
2021/11/16 13:31:55;;;;;;;;;;;;;;;;;;;;;
2021/11/16 13:34:32;;;;;;;8.00;5.70;;;;;;;;;;5068555;28;20204;-68
2021/11/16 13:37:12;;;;;;;8.60;5.72;;;;;;;;;;5070793;28;20641;-67
2021/11/16 13:39:40;;;;;;;10.30;6.38;;;;;;;;;;5071158;28;20535;-67
2021/11/16 13:42:11;;;;;;;10.52;8.20;;;;;;;;;;5071188;28;20646;-68
2021/11/16 13:44:40;;;;;;;10.98;7.95;;;;;;;;;;5071255;28;20225;-67
2021/11/16 13:47:09;;;;;;;21.92;11.85;;;;;;;;;;5070843;28;20186;-67
2021/11/16 13:49:43;;;;;;;9.90;7.13;;;;;;;;;;5070551;28;20189;-69
2021/11/16 13:52:29;;;;;;;8.07;5.18;;;;;;;;;;5071098;28;20194;-67
2021/11/16 13:55:00;;;;;;;11.05;6.80;;;;;;;;;;5066879;28;20182;-67
2021/11/16 13:57:29;;;;;;;8.63;6.15;;;;;;;;;;5070141;28;20252;-67
2021/11/16 14:00:08;;;;;;;10.10;7.30;;;;;;;;;;5070775;28;20193;-68
2021/11/16 14:02:47;;;;;;;8.35;6.25;;;;;;;;;;5070810;28;20198;-67
2021/11/16 14:05:16;;;;;;;8.35;6.03;;;;;;;;;;5070568;28;20274;-67
2021/11/16 14:07:54;;;;;;;7.80;6.15;;;;;;;;;;5069923;28;20302;-67
2021/11/16 14:10:22;;;;;;;9.20;6.15;;;;;;;;;;5070554;28;20186;-67
2021/11/16 14:12:52;;;;;;;9.68;5.80;;;;;;;;;;5069970;28;20750;-68
2021/11/16 14:15:25;;;;;;;8.80;6.20;;;;;;;;;;5070532;28;20190;-67
2021/11/16 14:18:00;;;;;;;9.75;6.45;;;;;;;;;;5070151;28;20265;-67
2021/11/16 14:20:30;;;;;;;9.20;6.65;;;;;;;;;;5070808;28;20755;-68
2021/11/16 14:22:58;;;;;;;9.90;6.47;;;;;;;;;;5070682;28;20205;-68
2021/11/16 14:25:29;;;;;;;10.43;6.85;;;;;;;;;;5070634;28;20213;-67
2021/11/16 14:28:01;;;;;;;9.68;6.35;;;;;;;;;;5070625;28;20269;-67
2021/11/16 14:30:33;;;;;;;9.57;6.97;;;;;;;;;;5070304;28;20277;-69
2021/11/16 14:33:08;;;;;;;8.20;5.32;;;;;;;;;;5066756;28;20676;-67
2021/11/16 14:35:40;;;;;;;8.63;6.45;;;;;;;;;;5070940;28;20267;-68
2021/11/16 14:38:09;;;;;;;9.07;5.97;;;;;;;;;;5070537;28;20186;-67
2021/11/16 14:40:37;;;;;;;9.40;6.43;;;;;;;;;;5070570;28;20198;-68
2021/11/16 14:43:18;;;;;;;9.40;6.70;;;;;;;;;;5070326;28;20183;-67
2021/11/16 14:45:45;;;;;;;8.13;6.35;;;;;;;;;;5070727;28;20198;-67
2021/11/16 14:48:17;;;;;;;8.73;5.85;;;;;;;;;;5070424;28;20205;-66
2021/11/16 14:51:04;;;;;;;9.18;6.50;;;;;;;;;;5070034;28;20664;-67
2021/11/16 14:53:32;;;;;;;10.00;6.45;;;;;;;;;;5069672;28;20275;-68
2021/11/16 14:56:00;;;;;;;7.95;6.40;;;;;;;;;;5070138;28;20259;-67
2021/11/16 14:58:28;;;;;;;9.40;7.20;;;;;;;;;;5070323;28;20198;-68
2021/11/16 15:00:56;;;;;;;9.43;6.68;;;;;;;;;;5070375;28;20641;-67
2021/11/16 15:03:29;;;;;;;9.40;6.75;;;;;;;;;;5069564;28;20190;-67
2021/11/16 15:05:59;;;;;;;10.50;7.63;;;;;;;;;;5069199;28;21537;-67
2021/11/16 15:08:29;;;;;;;10.40;5.90;;;;;;;;;;5070344;28;20190;-70